Time;durP1;ratioP1;P1;durP2;ratioP2;P2;SDS_P1;SDS_P2;PMS_P1;PMS_P2;Temp;Humidity;BMP_temperature;BMP_pressure;BME280_temperature;BME280_humidity;BME280_pressure;Samples;Min_cycle;Max_cycle;Signal;HPM_P1;HPM_P2
2022/02/02 00:00:25;;;;;;;91.32;26.90;;;;;;;5.60;100.00;100429.19;5001464;28;20137;-71
2022/02/02 00:03:10;;;;;;;85.68;24.98;;;;;;;5.54;100.00;100440.22;5014298;28;20100;-71
2022/02/02 00:08:55;;;;;;;83.35;25.15;;;;;;;5.51;100.00;100450.97;5014705;28;20049;-71
2022/02/02 00:23:49;;;;;;;90.85;28.85;;;;;;;5.54;100.00;100435.75;5014501;28;20041;-71
2022/02/02 00:26:39;;;;;;;103.03;32.33;;;;;;;5.79;100.00;100442.81;5014056;28;20056;-71
2022/02/02 00:29:29;;;;;;;111.68;35.25;;;;;;;5.92;100.00;100449.75;5014851;28;20053;-71
2022/02/02 00:35:20;;;;;;;106.47;30.83;;;;;;;5.95;100.00;100444.25;5014972;28;20116;-71
2022/02/02 00:38:05;;;;;;;101.90;31.05;;;;;;;5.99;100.00;100442.22;5013348;28;20107;-71
2022/02/02 00:40:49;;;;;;;100.88;30.83;;;;;;;6.17;100.00;100439.06;5013648;28;20168;-71
2022/02/02 00:43:33;;;;;;;108.15;37.13;;;;;;;6.05;100.00;100445.25;5000004;28;20056;-71
2022/02/02 00:46:16;;;;;;;;;;;;;;;5.96;100.00;100461.81;5014894;28;20084;-71
2022/02/02 00:49:03;;;;;;;133.97;36.47;;;;;;;5.98;100.00;100459.91;5000119;28;19972;-71
2022/02/02 00:51:49;;;;;;;135.52;35.90;;;;;;;5.85;100.00;100459.09;5013404;28;20584;-71
2022/02/02 00:54:33;;;;;;;103.78;33.72;;;;;;;5.96;100.00;100467.09;5013455;28;20107;-72
2022/02/02 00:57:16;;;;;;;107.40;37.22;;;;;;;5.99;100.00;100458.97;5013298;28;20053;-72
2022/02/02 01:00:00;;;;;;;133.85;36.70;;;;;;;5.93;100.00;100451.44;4999648;28;20048;-71
2022/02/02 01:02:45;;;;;;;114.35;38.17;;;;;;;5.87;100.00;100446.59;5013251;28;20499;-72
2022/02/02 01:05:29;;;;;;;140.90;37.38;;;;;;;5.92;100.00;100455.06;5014174;28;20568;-71
2022/02/02 01:08:41;;;;;;;135.43;39.22;;;;;;;5.86;100.00;100460.78;4999414;28;20057;-72
2022/02/02 01:20:55;;;;;;;118.90;32.45;;;;;;;5.86;100.00;100476.66;5013448;28;19920;-71
2022/02/02 01:29:09;;;;;;;106.55;30.85;;;;;;;6.08;100.00;100479.47;5013191;28;20377;-70
2022/02/02 01:31:53;;;;;;;120.20;33.55;;;;;;;6.08;100.00;100490.06;5012771;28;20056;-71
2022/02/02 01:34:38;;;;;;;107.13;32.67;;;;;;;6.12;100.00;100472.13;5013884;28;20080;-70
2022/02/02 01:37:22;;;;;;;112.30;33.65;;;;;;;6.14;100.00;100479.00;5012409;28;20470;-70
2022/02/02 01:40:14;;;;;;;120.13;37.55;;;;;;;6.24;100.00;100487.16;5012732;28;20080;-71
2022/02/02 01:43:13;;;;;;;114.25;34.53;;;;;;;6.17;100.00;100502.59;5013530;28;20092;-71
2022/02/02 01:46:11;;;;;;;139.70;38.22;;;;;;;6.34;100.00;100494.28;5013498;28;20095;-71
2022/02/02 01:52:41;;;;;;;113.88;33.72;;;;;;;6.25;100.00;100488.84;5012458;28;20068;-70
2022/02/02 01:55:29;;;;;;;115.30;35.95;;;;;;;6.29;100.00;100507.03;5013610;28;20133;-71
2022/02/02 02:01:13;;;;;;;86.15;30.35;;;;;;;6.06;100.00;100496.41;5012850;28;20061;-71
2022/02/02 02:03:58;;;;;;;76.85;26.60;;;;;;;6.02;100.00;100493.13;5012187;28;20048;-70
2022/02/02 02:06:42;;;;;;;54.63;24.77;;;;;;;5.98;100.00;100499.63;5012145;28;20064;-71
2022/02/02 02:09:28;;;;;;;49.90;19.88;;;;;;;5.98;100.00;100502.25;5013157;28;20115;-70
2022/02/02 02:12:12;;;;;;;48.55;17.83;;;;;;;6.00;100.00;100510.94;5012279;28;20072;-70
2022/02/02 02:15:02;;;;;;;45.00;18.40;;;;;;;5.99;100.00;100509.25;5012209;28;20056;-70
2022/02/02 02:17:45;;;;;;;41.22;19.52;;;;;;;6.04;100.00;100517.69;5012063;28;20515;-71
2022/02/02 02:20:30;;;;;;;36.83;16.15;;;;;;;6.05;100.00;100503.50;5013293;28;20076;-70
2022/02/02 02:23:13;;;;;;;37.47;16.85;;;;;;;6.07;100.00;100506.88;5012132;28;20045;-71
2022/02/02 02:25:57;;;;;;;30.40;15.73;;;;;;;6.13;100.00;100513.53;5012101;28;20141;-71
2022/02/02 02:37:38;;;;;;;26.45;11.27;;;;;;;6.28;100.00;100515.06;5011840;28;20044;-70
2022/02/02 02:58:49;;;;;;;22.08;9.15;;;;;;;6.50;100.00;100489.56;5012832;28;20084;-70
2022/02/02 03:02:03;;;;;;;19.50;9.05;;;;;;;6.44;100.00;100487.34;5014325;28;20494;-70
2022/02/02 03:14:24;;;;;;;29.05;9.55;;;;;;;6.40;100.00;100506.22;5016464;28;20053;-70
2022/02/02 03:35:09;;;;;;;19.27;9.98;;;;;;;6.38;100.00;100516.09;5015405;28;20095;-71
2022/02/02 03:56:27;;;;;;;19.42;7.93;;;;;;;6.64;100.00;100523.81;5015566;28;20121;-71
2022/02/02 04:07:52;;;;;;;23.38;9.85;;;;;;;6.74;100.00;100547.81;5015454;28;20512;-71
2022/02/02 04:10:36;;;;;;;21.05;9.15;;;;;;;6.73;100.00;100544.34;5001263;28;20404;-70
2022/02/02 04:55:45;;;;;;;16.25;5.28;;;;;;;7.05;100.00;100534.81;5014897;28;20099;-70
2022/02/02 04:58:45;;;;;;;14.35;4.95;;;;;;;6.96;100.00;100535.50;5014319;28;20139;-70
2022/02/02 05:10:34;;;;;;;10.02;4.18;;;;;;;7.31;100.00;100557.56;5014633;28;20068;-70
2022/02/02 05:51:26;;;;;;;15.15;4.90;;;;;;;7.46;100.00;100598.81;5013937;28;20430;-71
2022/02/02 05:54:10;;;;;;;14.13;5.03;;;;;;;7.43;100.00;100592.91;5012563;28;20096;-72
2022/02/02 05:56:54;;;;;;;;;;;;;;;7.54;100.00;100591.13;5013979;28;20464;-71
2022/02/02 05:59:39;;;;;;;10.90;5.30;;;;;;;7.48;100.00;100596.91;5012477;28;19967;-71
2022/02/02 06:02:30;;;;;;;13.63;5.65;;;;;;;7.48;100.00;100612.81;5012558;28;20122;-71
2022/02/02 06:05:15;;;;;;;16.58;4.78;;;;;;;7.53;100.00;100615.97;5012493;28;20088;-71
2022/02/02 06:08:01;;;;;;;14.65;4.68;;;;;;;7.55;100.00;100606.09;5012115;28;20099;-71
2022/02/02 06:10:45;;;;;;;9.70;4.32;;;;;;;7.55;100.00;100608.75;5013132;28;20064;-71
2022/02/02 06:13:42;;;;;;;13.63;4.75;;;;;;;7.54;100.00;100612.34;5013286;28;20052;-71
2022/02/02 06:16:28;;;;;;;9.95;4.45;;;;;;;7.50;100.00;100621.50;5012148;28;20488;-72
2022/02/02 06:19:12;;;;;;;13.18;4.38;;;;;;;7.44;100.00;100608.72;5012227;28;20106;-71
2022/02/02 06:22:16;;;;;;;13.95;4.90;;;;;;;7.48;100.00;100618.13;5012041;28;20153;-71
2022/02/02 06:25:04;;;;;;;16.42;4.55;;;;;;;7.45;100.00;100617.50;5011896;28;20049;-72
2022/02/02 06:28:02;;;;;;;12.65;3.78;;;;;;;7.39;100.00;100618.81;5012091;28;20079;-72
2022/02/02 06:30:57;;;;;;;12.98;4.00;;;;;;;7.44;100.00;100624.63;5011816;28;20044;-72
2022/02/02 06:33:42;;;;;;;17.00;4.38;;;;;;;7.44;100.00;100624.63;5011784;28;20568;-71
2022/02/02 06:36:31;;;;;;;12.35;4.57;;;;;;;7.44;100.00;100627.28;5011194;28;20052;-71
2022/02/02 06:39:15;;;;;;;17.33;4.63;;;;;;;7.52;100.00;100642.59;5011749;28;20076;-71
2022/02/02 06:41:59;;;;;;;14.82;4.40;;;;;;;7.54;100.00;100638.88;5013211;28;20465;-72
2022/02/02 06:44:44;;;;;;;18.00;4.65;;;;;;;7.60;100.00;100643.72;5011725;28;20068;-71
2022/02/02 06:47:29;;;;;;;12.75;4.38;;;;;;;7.46;100.00;100646.56;5012827;28;20521;-71
2022/02/02 06:50:19;;;;;;;15.00;4.10;;;;;;;7.57;100.00;100659.88;5011666;28;20430;-71
2022/02/02 06:56:26;;;;;;;19.40;4.93;;;;;;;7.49;100.00;100664.91;5012240;28;20128;-72
2022/02/02 07:02:51;;;;;;;18.75;4.60;;;;;;;7.51;100.00;100680.72;5012804;28;20052;-71
2022/02/02 07:05:33;;;;;;;18.52;4.78;;;;;;;7.63;100.00;100691.25;5012970;28;20061;-71
2022/02/02 07:09:15;;;;;;;15.95;4.13;;;;;;;7.83;100.00;100698.56;5012477;28;20056;-71
2022/02/02 07:11:36;;;;;;;13.18;4.47;;;;;;;7.72;100.00;100690.56;5011484;28;20141;-71
2022/02/02 07:14:33;;;;;;;12.35;4.72;;;;;;;7.69;100.00;100696.94;5011721;28;20109;-72
2022/02/02 07:17:42;;;;;;;20.13;4.38;;;;;;;7.80;100.00;100715.56;5011435;28;20052;-72
2022/02/02 07:20:36;;;;;;;21.00;4.60;;;;;;;7.76;100.00;100694.66;5012675;28;20048;-71
2022/02/02 07:23:40;;;;;;;15.05;3.85;;;;;;;7.73;100.00;100698.38;5012679;28;20172;-71
2022/02/02 07:29:51;;;;;;;17.55;4.82;;;;;;;7.67;100.00;100705.97;5011769;28;20133;-71
2022/02/02 07:32:46;;;;;;;20.15;4.93;;;;;;;7.64;100.00;100699.09;5011654;28;20402;-72
2022/02/02 07:35:46;;;;;;;19.90;4.57;;;;;;;7.70;100.00;100693.31;5012603;28;20048;-71
2022/02/02 07:38:54;;;;;;;8.70;4.70;;;;;;;7.83;100.00;100693.25;5011536;28;20099;-71
2022/02/02 07:41:43;;;;;;;14.90;4.30;;;;;;;7.82;100.00;100707.50;5011515;28;20489;-72
2022/02/02 07:44:31;;;;;;;13.45;4.40;;;;;;;7.90;100.00;100705.06;5011192;28;20068;-71
2022/02/02 07:47:15;;;;;;;17.02;4.70;;;;;;;7.91;100.00;100704.09;5011516;28;20095;-71
2022/02/02 07:50:02;;;;;;;18.70;6.22;;;;;;;7.88;100.00;100709.66;5001012;28;20064;-71
2022/02/02 07:52:49;;;;;;;11.73;4.13;;;;;;;8.01;100.00;100691.81;5015637;28;20049;-71
2022/02/02 07:55:34;;;;;;;21.55;4.20;;;;;;;7.97;100.00;100712.47;5014854;28;20141;-71
2022/02/02 07:58:21;;;;;;;17.70;4.50;;;;;;;8.00;100.00;100719.34;5014739;28;20100;-71
2022/02/02 08:01:06;;;;;;;20.35;4.10;;;;;;;8.05;100.00;100704.75;5014810;28;20125;-71
2022/02/02 08:03:55;;;;;;;10.75;3.63;;;;;;;8.09;100.00;100723.94;5014628;28;20072;-71
2022/02/02 08:06:41;;;;;;;16.70;4.72;;;;;;;8.05;100.00;100749.88;5015592;28;20080;-72
2022/02/02 08:12:16;;;;;;;;;;;;;;;8.11;100.00;100737.94;5014979;28;20044;-71
2022/02/02 08:15:00;;;;;;;16.42;4.45;;;;;;;8.07;100.00;100731.19;5014553;28;20012;-71
2022/02/02 08:17:45;;;;;;;11.38;3.97;;;;;;;8.18;100.00;100740.06;5014182;28;20056;-71
2022/02/02 08:20:29;;;;;;;12.48;3.58;;;;;;;8.24;100.00;100741.41;5000641;28;20048;-71
2022/02/02 08:23:13;;;;;;;16.83;3.78;;;;;;;8.32;100.00;100752.25;5014520;28;20103;-72
2022/02/02 08:25:59;;;;;;;18.55;4.03;;;;;;;8.40;100.00;100757.84;5015066;28;20056;-71
2022/02/02 08:28:45;;;;;;;18.67;5.50;;;;;;;8.40;100.00;100760.50;5014181;28;20061;-71
2022/02/02 08:31:29;;;;;;;12.15;3.55;;;;;;;8.36;100.00;100751.09;5014985;28;20049;-71
2022/02/02 08:34:13;;;;;;;24.75;3.88;;;;;;;8.43;100.00;100752.28;5014977;28;20056;-71
2022/02/02 08:36:58;;;;;;;21.40;4.30;;;;;;;8.41;100.00;100754.22;5013760;28;20060;-71
2022/02/02 08:42:32;;;;;;;13.48;3.85;;;;;;;8.52;100.00;100740.94;5014947;28;20096;-71
2022/02/02 08:45:21;;;;;;;18.55;4.45;;;;;;;8.51;100.00;100741.91;5014102;28;20131;-71
2022/02/02 08:48:08;;;;;;;14.05;4.60;;;;;;;8.52;100.00;100751.56;5014729;28;20115;-71
2022/02/02 08:51:01;;;;;;;20.35;3.65;;;;;;;8.58;100.00;100743.13;5013550;28;20145;-71
2022/02/02 09:02:24;;;;;;;13.60;3.33;;;;;;;8.80;100.00;100743.13;5014833;28;20137;-71
2022/02/02 09:05:20;;;;;;;22.95;4.20;;;;;;;8.87;100.00;100739.03;5014511;28;20362;-71
2022/02/02 09:08:05;;;;;;;13.48;3.67;;;;;;;8.88;100.00;100748.69;5013411;28;20108;-71
2022/02/02 09:32:16;;;;;;;12.98;3.80;;;;;;;9.66;100.00;100779.47;5013163;28;20100;-71
2022/02/02 09:34:57;;;;;;;14.98;4.10;;;;;;;9.67;100.00;100776.69;5013369;28;20133;-71
2022/02/02 09:37:41;;;;;;;11.75;3.78;;;;;;;9.85;100.00;100787.63;5012641;28;20064;-71
2022/02/02 09:41:10;;;;;;;22.65;4.97;;;;;;;9.85;100.00;100787.63;5012876;28;20069;-71
2022/02/02 09:43:30;;;;;;;15.75;3.65;;;;;;;9.83;100.00;100787.78;5012684;28;20037;-72
2022/02/02 09:46:19;;;;;;;12.25;4.20;;;;;;;9.76;100.00;100791.91;5012691;28;20056;-71
2022/02/02 09:49:07;;;;;;;16.05;3.97;;;;;;;9.83;100.00;100802.91;5014072;28;20057;-71
2022/02/02 09:52:02;;;;;;;26.35;4.13;;;;;;;9.87;100.00;100815.00;4999010;28;20052;-71
2022/02/02 09:55:00;;;;;;;11.98;3.58;;;;;;;10.04;100.00;100828.63;5012499;28;20080;-66
2022/02/02 10:04:36;;;;;;;19.27;4.32;;;;;;;10.09;100.00;100852.22;5012871;28;20099;-71
2022/02/02 10:13:25;;;;;;;14.23;3.78;;;;;;;10.01;100.00;100865.31;5012393;28;20472;-71
2022/02/02 10:16:21;;;;;;;17.67;4.00;;;;;;;9.95;100.00;100871.13;5012435;28;20183;-70
2022/02/02 10:19:13;;;;;;;16.50;4.68;;;;;;;9.98;100.00;100870.91;5013559;28;20386;-71
2022/02/02 10:21:58;;;;;;;21.52;3.92;;;;;;;9.83;100.00;100853.50;5013272;28;20099;-71
2022/02/02 10:24:44;;;;;;;19.23;4.55;;;;;;;9.77;100.00;100854.00;5012202;28;20129;-70
2022/02/02 10:27:42;;;;;;;15.05;4.70;;;;;;;9.82;100.00;100857.13;5011856;28;20052;-70
2022/02/02 10:30:26;;;;;;;15.48;4.43;;;;;;;9.85;100.00;100870.19;5013239;28;20067;-71
2022/02/02 10:33:15;;;;;;;15.80;4.28;;;;;;;9.80;100.00;100867.88;5011852;28;20160;-71
2022/02/02 10:36:09;;;;;;;16.58;4.15;;;;;;;9.72;100.00;100874.81;5011982;28;20358;-71
2022/02/02 10:39:07;;;;;;;16.48;4.30;;;;;;;9.82;100.00;100886.41;5012103;28;20100;-71
2022/02/02 10:42:01;;;;;;;12.52;3.58;;;;;;;9.71;100.00;100900.63;5012838;28;20045;-71
2022/02/02 10:44:46;;;;;;;22.50;4.68;;;;;;;9.65;100.00;100897.56;5012048;28;20556;-71
2022/02/02 10:47:36;;;;;;;15.45;4.00;;;;;;;9.63;100.00;100891.53;5011791;28;20544;-71
2022/02/02 10:53:27;;;;;;;18.90;4.20;;;;;;;9.91;100.00;100891.00;5013109;28;20196;-71
2022/02/02 10:56:31;;;;;;;14.88;4.00;;;;;;;10.15;100.00;100889.00;5048373;22;20462;-70
2022/02/02 11:07:57;;;;;;;11.45;3.83;;;;;;;10.51;100.00;100871.66;5012579;28;20129;-70
2022/02/02 11:10:41;;;;;;;13.77;3.83;;;;;;;10.55;100.00;100877.56;5011500;28;20445;-70
2022/02/02 11:13:25;;;;;;;12.90;3.28;;;;;;;10.50;100.00;100880.63;5012719;28;20053;-70
2022/02/02 11:16:12;;;;;;;15.00;3.75;;;;;;;10.31;100.00;100864.47;5011734;28;20409;-70
2022/02/02 11:18:57;;;;;;;13.02;3.85;;;;;;;-139.48;100.00;61774.03;5011966;28;20084;-68
2022/02/02 11:21:41;;;;;;;16.50;4.00;;;;;;;-139.48;100.00;61774.03;5012652;28;20562;-70
2022/02/02 11:24:25;;;;;;;16.90;4.22;;;;;;;-139.48;100.00;61774.03;5015408;28;20056;-70
2022/02/02 11:27:41;;;;;;;15.93;3.92;;;;;;;-139.48;100.00;61774.03;5016385;28;20100;-69
2022/02/02 11:30:25;;;;;;;12.80;3.65;;;;;;;-139.48;100.00;61774.03;5015263;28;20103;-71
2022/02/02 11:33:15;;;;;;;15.52;4.28;;;;;;;-139.48;100.00;61774.03;5015182;28;20096;-71
2022/02/02 11:36:16;;;;;;;14.40;4.07;;;;;;;-139.48;100.00;61774.03;5016170;28;20053;-70
2022/02/02 11:39:04;;;;;;;12.55;3.65;;;;;;;-139.48;100.00;61774.03;5015996;28;20103;-70
2022/02/02 11:41:58;;;;;;;11.40;3.83;;;;;;;-139.48;100.00;61774.03;5015130;28;20044;-70
2022/02/02 11:45:03;;;;;;;13.15;3.75;;;;;;;-139.48;100.00;61774.03;5014895;28;20040;-70
2022/02/02 11:47:48;;;;;;;15.52;4.10;;;;;;;-139.48;100.00;61774.03;5015478;28;20049;-70
2022/02/02 11:50:46;;;;;;;14.65;3.83;;;;;;;-139.48;100.00;61774.03;5016254;28;20057;-70
2022/02/02 11:53:49;;;;;;;15.05;3.53;;;;;;;-139.48;100.00;61774.03;5015841;28;20057;-71
2022/02/02 11:57:03;;;;;;;9.43;3.42;;;;;;;-139.48;100.00;61774.03;5015447;28;20098;-68
2022/02/02 12:02:54;;;;;;;14.02;3.53;;;;;;;-139.48;100.00;61774.03;5014709;28;20512;-71
2022/02/02 12:27:48;;;;;;;16.15;3.78;;;;;;;-139.48;100.00;61774.03;5014666;28;20489;-70
2022/02/02 12:58:03;;;;;;;19.70;4.57;;;;;;;-139.48;100.00;61774.03;5009170;28;20052;-71
2022/02/02 13:03:39;;;;;;;14.48;4.03;;;;;;;-139.48;100.00;61774.03;5014774;28;20410;-71
2022/02/02 13:06:24;;;;;;;18.63;4.05;;;;;;;-139.48;100.00;61774.03;5013430;28;20528;-71
2022/02/02 13:09:07;;;;;;;13.77;4.00;;;;;;;-139.48;100.00;61774.03;5013158;28;20128;-71
2022/02/02 13:11:55;;;;;;;11.15;2.95;;;;;;;-139.48;100.00;61774.03;5013505;28;20465;-70
2022/02/02 13:14:51;;;;;;;15.05;3.20;;;;;;;-139.48;100.00;61774.03;5013632;28;20041;-70
2022/02/02 13:23:59;;;;;;;8.35;2.78;;;;;;;-139.48;100.00;61774.03;5014747;28;20087;-71
2022/02/02 13:26:53;;;;;;;13.82;3.40;;;;;;;-139.48;100.00;61774.03;5013624;28;20092;-71
2022/02/02 13:29:45;;;;;;;9.80;2.65;;;;;;;-139.48;100.00;61774.03;5013395;28;20044;-70
2022/02/02 13:32:43;;;;;;;13.45;3.47;;;;;;;-139.48;100.00;61774.03;5014346;28;20060;-71
2022/02/02 13:35:37;;;;;;;8.40;2.85;;;;;;;-139.48;100.00;61774.03;5012925;28;20139;-71
2022/02/02 13:51:15;;;;;;;3.63;1.90;;;;;;;-139.48;100.00;61774.03;5014127;28;20053;-71
2022/02/02 14:32:57;;;;;;;6.40;2.50;;;;;;;-139.48;100.00;61774.03;5013205;28;20106;-71
2022/02/02 14:35:43;;;;;;;5.72;2.60;;;;;;;-139.48;100.00;61774.03;5013127;28;20052;-71
2022/02/02 14:38:55;;;;;;;4.60;2.67;;;;;;;-139.48;100.00;61774.03;5013335;28;20460;-71
2022/02/02 14:44:31;;;;;;;5.47;2.60;;;;;;;-139.48;100.00;61774.03;5013678;28;20505;-71
2022/02/02 14:47:21;;;;;;;4.30;1.70;;;;;;;-139.48;100.00;61774.03;5012114;28;20432;-71
2022/02/02 14:53:36;;;;;;;6.90;1.90;;;;;;;-139.48;100.00;61774.03;5003876;28;20068;-70
2022/02/02 15:28:50;;;;;;;5.03;2.25;;;;;;;-139.48;100.00;61774.03;5015570;28;20465;-71
2022/02/02 15:31:36;;;;;;;6.15;2.17;;;;;;;-139.48;100.00;61774.03;5016159;28;20040;-71
2022/02/02 15:34:29;;;;;;;7.68;2.45;;;;;;;-139.48;100.00;61774.03;5015021;28;20481;-71
2022/02/02 15:40:09;;;;;;;3.85;1.77;;;;;;;-139.48;100.00;61774.03;5016182;28;20056;-70
2022/02/02 15:43:07;;;;;;;5.50;2.20;;;;;;;-139.48;100.00;61774.03;5016184;28;20175;-71
2022/02/02 16:03:42;;;;;;;6.13;2.05;;;;;;;-139.48;100.00;61774.03;5015895;28;20044;-71
2022/02/02 16:06:27;;;;;;;5.43;2.05;;;;;;;-139.48;100.00;61774.03;5002317;28;20080;-71
2022/02/02 16:10:02;;;;;;;6.25;2.00;;;;;;;-139.48;100.00;61774.03;5014454;28;20080;-71
2022/02/02 16:12:22;;;;;;;4.70;1.88;;;;;;;-139.48;100.00;61774.03;5014530;28;20409;-72
2022/02/02 16:18:20;;;;;;;4.30;1.90;;;;;;;-139.48;100.00;61774.03;5015527;28;20131;-71
2022/02/02 16:34:16;;;;;;;2.35;2.00;;;;;;;-139.48;100.00;61774.03;5006992;28;20100;-71
2022/02/02 16:36:31;;;;;;;3.88;2.25;;;;;;;-139.48;100.00;61774.03;5015328;28;20088;-71
2022/02/02 16:39:21;;;;;;;10.38;2.58;;;;;;;-139.48;100.00;61774.03;5001397;28;20075;-70
2022/02/02 16:45:11;;;;;;;7.22;2.63;;;;;;;-139.48;100.00;61774.03;5014788;28;20524;-70
2022/02/02 16:47:55;;;;;;;5.20;2.35;;;;;;;-139.48;100.00;61774.03;5014992;28;20140;-71
2022/02/02 16:50:44;;;;;;;5.57;2.85;;;;;;;-139.48;100.00;61774.03;5013940;28;20509;-69
2022/02/02 16:53:37;;;;;;;6.25;2.92;;;;;;;-139.48;100.00;61774.03;5014537;28;20076;-70
2022/02/02 16:56:37;;;;;;;6.17;2.23;;;;;;;-139.48;100.00;61774.03;5015044;28;20065;-70
2022/02/02 17:33:12;;;;;;;5.60;3.20;;;;;;;-139.48;100.00;61774.03;5013490;28;20049;-70
2022/02/02 17:42:11;;;;;;;4.95;3.22;;;;;;;-139.48;100.00;61774.03;5013459;28;20049;-70
2022/02/02 17:45:47;;;;;;;6.80;3.45;;;;;;;-139.48;100.00;61774.03;5013389;28;20187;-70
2022/02/02 18:12:48;;;;;;;7.57;3.60;;;;;;;-139.48;100.00;61774.03;5012584;28;20169;-70
2022/02/02 18:21:20;;;;;;;6.10;3.75;;;;;;;-139.48;100.00;61774.03;5013727;28;20052;-70
2022/02/02 18:26:56;;;;;;;7.57;3.78;;;;;;;-139.48;100.00;61774.03;5013852;28;20076;-70
2022/02/02 18:35:43;;;;;;;8.02;4.47;;;;;;;-139.48;100.00;61774.03;5011653;28;20073;-69
2022/02/02 18:48:40;;;;;;;8.45;4.70;;;;;;;-139.48;100.00;61774.03;5012408;28;20600;-69
2022/02/02 19:56:55;;;;;;;18.67;11.77;;;;;;;-139.48;100.00;61774.03;5015460;28;20111;-71
2022/02/02 20:03:14;;;;;;;19.75;12.80;;;;;;;-139.48;100.00;61774.03;5014917;28;20521;-72
2022/02/02 20:06:18;;;;;;;28.83;15.43;;;;;;;-139.48;100.00;61774.03;5015483;28;20187;-71
2022/02/02 20:12:30;;;;;;;29.53;17.17;;;;;;;-139.48;100.00;61774.03;4993859;28;20203;-71
2022/02/02 20:15:14;;;;;;;29.30;17.02;;;;;;;-139.48;100.00;61774.03;4980825;28;20422;-71
2022/02/02 20:18:01;;;;;;;29.63;18.00;;;;;;;-139.48;100.00;61774.03;4997659;28;20428;-71
2022/02/02 20:20:46;;;;;;;25.30;15.73;;;;;;;-139.48;100.00;61774.03;5015409;28;20049;-71
2022/02/02 20:23:30;;;;;;;28.67;17.45;;;;;;;-139.48;100.00;61774.03;5014644;28;20096;-71
2022/02/02 20:26:17;;;;;;;30.13;18.38;;;;;;;-139.48;100.00;61774.03;5000622;28;20060;-71
2022/02/02 20:29:02;;;;;;;32.60;19.88;;;;;;;-139.48;100.00;61774.03;5015118;28;20053;-71
2022/02/02 20:31:46;;;;;;;32.65;18.63;;;;;;;-139.48;100.00;61774.03;5014157;28;20268;-71
2022/02/02 20:34:30;;;;;;;28.02;17.15;;;;;;;-139.48;100.00;61774.03;5014344;28;20117;-71
2022/02/02 20:37:18;;;;;;;28.67;17.20;;;;;;;-139.48;100.00;61774.03;5014015;28;20061;-71
2022/02/02 20:40:06;;;;;;;29.08;18.67;;;;;;;-139.48;100.00;61774.03;5014937;28;20389;-71
2022/02/02 21:15:35;;;;;;;30.38;17.58;;;;;;;-139.48;100.00;61774.03;5013840;28;20057;-71
2022/02/02 21:18:22;;;;;;;30.48;17.15;;;;;;;-139.48;100.00;61774.03;5014330;28;20068;-71
2022/02/02 21:21:19;;;;;;;28.13;16.85;;;;;;;-139.48;100.00;61774.03;5014646;28;20501;-71
2022/02/02 21:24:44;;;;;;;31.05;17.27;;;;;;;-139.48;100.00;61774.03;5013368;28;20049;-71
2022/02/02 21:27:28;;;;;;;27.30;15.70;;;;;;;-139.48;100.00;61774.03;5013640;28;20079;-71
2022/02/02 21:30:12;;;;;;;26.13;15.25;;;;;;;-139.48;100.00;61774.03;5013470;28;20048;-71
2022/02/02 21:32:56;;;;;;;30.23;15.95;;;;;;;-139.48;100.00;61774.03;5014407;28;20044;-71
2022/02/02 21:35:42;;;;;;;29.90;17.23;;;;;;;-139.48;100.00;61774.03;5014231;28;20049;-71
2022/02/02 21:38:37;;;;;;;31.20;18.20;;;;;;;-139.48;100.00;61774.03;5012952;28;20449;-72
2022/02/02 21:41:28;;;;;;;41.78;21.92;;;;;;;-139.48;100.00;61774.03;5013016;28;20196;-72
2022/02/02 21:44:14;;;;;;;39.85;21.85;;;;;;;-139.48;100.00;61774.03;5013264;28;20053;-72
2022/02/02 21:46:58;;;;;;;45.30;22.80;;;;;;;-139.48;100.00;61774.03;4998999;28;20437;-73
2022/02/02 21:49:44;;;;;;;53.78;25.63;;;;;;;-139.48;100.00;61774.03;5013647;28;20049;-72
2022/02/02 21:52:32;;;;;;;59.13;25.45;;;;;;;-139.48;100.00;61774.03;4998999;28;20133;-72
2022/02/02 21:55:17;;;;;;;68.38;27.98;;;;;;;-139.48;100.00;61774.03;5014028;28;20075;-72
2022/02/02 21:58:00;;;;;;;71.63;28.52;;;;;;;-139.48;100.00;61774.03;4998567;28;20560;-73
2022/02/02 22:00:44;;;;;;;73.93;28.95;;;;;;;-139.48;100.00;61774.03;5013452;28;20072;-72
2022/02/02 22:03:28;;;;;;;75.82;29.15;;;;;;;-139.48;100.00;61774.03;5012630;28;20056;-73
2022/02/02 22:06:12;;;;;;;87.18;30.35;;;;;;;-139.48;100.00;61774.03;5012727;28;20544;-73
2022/02/02 22:08:56;;;;;;;100.78;31.63;;;;;;;-139.48;100.00;61774.03;5013246;28;20052;-73
2022/02/02 22:11:40;;;;;;;103.45;32.90;;;;;;;-139.48;100.00;61774.03;4998672;28;20056;-73
2022/02/02 22:14:25;;;;;;;;;;;;;;;-139.48;100.00;61774.03;5012516;28;20080;-73
2022/02/02 22:17:09;;;;;;;106.85;34.55;;;;;;;-139.48;100.00;61774.03;4998716;28;19920;-73
2022/02/02 22:19:55;;;;;;;110.28;36.90;;;;;;;-139.48;100.00;61774.03;5013362;28;20095;-73
2022/02/02 22:22:41;;;;;;;110.13;36.95;;;;;;;-139.48;100.00;61774.03;5012180;28;20052;-73
2022/02/02 22:25:25;;;;;;;127.18;40.20;;;;;;;-139.48;100.00;61774.03;5012272;28;20136;-73
2022/02/02 22:28:08;;;;;;;121.05;40.45;;;;;;;-139.48;100.00;61774.03;5013225;28;20056;-73
2022/02/02 22:30:52;;;;;;;132.48;39.22;;;;;;;-139.48;100.00;61774.03;4998274;28;20125;-73
2022/02/02 22:33:36;;;;;;;125.75;41.70;;;;;;;-139.48;100.00;61774.03;5012920;28;20067;-73
2022/02/02 22:36:20;;;;;;;125.55;40.88;;;;;;;-139.48;100.00;61774.03;5012109;28;20048;-73
2022/02/02 22:39:06;;;;;;;164.45;43.55;;;;;;;-139.48;100.00;61774.03;5012809;28;20548;-73
2022/02/02 22:41:50;;;;;;;127.85;42.20;;;;;;;-139.48;100.00;61774.03;5012238;28;20382;-73
2022/02/02 22:44:34;;;;;;;134.77;42.38;;;;;;;-139.48;100.00;61774.03;5012101;28;20053;-73
2022/02/02 22:47:20;;;;;;;166.35;44.83;;;;;;;-139.48;100.00;61774.03;5011945;28;20056;-74
2022/02/02 22:50:06;;;;;;;122.15;41.15;;;;;;;-139.48;100.00;61774.03;5013351;28;20080;-73
2022/02/02 22:52:54;;;;;;;149.43;41.33;;;;;;;-139.48;100.00;61774.03;5011735;28;20048;-73
2022/02/02 22:55:38;;;;;;;120.50;40.28;;;;;;;-139.48;100.00;61774.03;5012108;28;20044;-73
2022/02/02 22:58:22;;;;;;;133.02;41.72;;;;;;;-139.48;100.00;61774.03;5012853;28;20100;-73
2022/02/02 23:01:06;;;;;;;138.45;42.72;;;;;;;-139.48;100.00;61774.03;5013246;28;20044;-73
2022/02/02 23:03:52;;;;;;;119.63;40.00;;;;;;;-139.48;100.00;61774.03;5012838;28;20076;-73
2022/02/02 23:06:36;;;;;;;126.90;39.85;;;;;;;-139.48;100.00;61774.03;5012786;28;20068;-73
2022/02/02 23:09:20;;;;;;;114.68;39.45;;;;;;;-139.48;100.00;61774.03;5011875;28;20057;-73
2022/02/02 23:12:05;;;;;;;145.30;41.17;;;;;;;-139.48;100.00;61774.03;5011546;28;20135;-73
2022/02/02 23:14:49;;;;;;;159.15;42.85;;;;;;;-139.48;100.00;61774.03;5011687;28;20077;-73
2022/02/02 23:17:34;;;;;;;119.05;37.53;;;;;;;-139.48;100.00;61774.03;5013682;28;20053;-73
2022/02/02 23:20:18;;;;;;;117.68;39.83;;;;;;;-139.48;100.00;61774.03;5016619;28;20052;-73
2022/02/02 23:23:03;;;;;;;123.18;40.13;;;;;;;-139.48;100.00;61774.03;5001724;28;20070;-73
2022/02/02 23:25:49;;;;;;;136.23;41.80;;;;;;;-139.48;100.00;61774.03;5041035;22;20056;-72
2022/02/02 23:28:37;;;;;;;126.43;39.38;;;;;;;-139.48;100.00;61774.03;5015438;28;20057;-73
2022/02/02 23:31:21;;;;;;;156.23;42.47;;;;;;;-139.48;100.00;61774.03;5015431;28;20096;-72
2022/02/02 23:34:05;;;;;;;141.13;38.22;;;;;;;-139.48;100.00;61774.03;5016134;28;20061;-73
2022/02/02 23:36:51;;;;;;;123.13;34.70;;;;;;;-139.48;100.00;61774.03;5015018;28;20489;-73
2022/02/02 23:39:39;;;;;;;101.72;31.90;;;;;;;-139.48;100.00;61774.03;5015278;28;20052;-72
2022/02/02 23:42:27;;;;;;;102.30;30.58;;;;;;;-139.48;100.00;61774.03;5015192;28;20115;-72
2022/02/02 23:45:11;;;;;;;124.88;30.95;;;;;;;-139.48;100.00;61774.03;5015856;28;20457;-72
2022/02/02 23:47:58;;;;;;;87.95;27.70;;;;;;;-139.48;100.00;61774.03;5015063;28;20079;-72
2022/02/02 23:50:42;;;;;;;96.57;28.35;;;;;;;-139.48;100.00;61774.03;5015025;28;20052;-72